Washington, DC (20392)

2:39 AM EDT on September 20, 2014 (GMT -0400)
Columbia Heights | Change Station
CLOSE
Current Station
Personal Weather Station
Location: Washington, DC
Elevation: 187 ft
Nearby Weather Stations

Elev 187 ft 38.92 °N, 77.03 °W | Updated 22 seconds ago

Partly Cloudy
Partly Cloudy
62.2 °F
Feels Like 62.2 °F
N
1.0
Wind Variable Wind from North
Gusts 2.0 mph

Today
High -- | Low -- °F
--% Chance of Precip.
Yesterday
High -- | Low -- °F
Precip. -- in
6:54 AM 7:08 PM
Waning Crescent, 14% visible
Pressure 30.29 in
Visibility 10.0 miles
Clouds Scattered Clouds 6500 ft
Mostly Cloudy 8000 ft
Dew Point 61 °F
Humidity 96%
Rainfall 0.00 in
Snow Depth Not available.
UV 0 out of 12
Pollen 4.50 out of 12
Air Quality Not available.
Flu Activity Not available.
METAR KDCA 200552Z 00000KT 10SM SCT065 BKN080 19/15 A3029 RMK AO2 SLP256 T01940150 10222 20194 56007

More Conditions Fewer Conditions

Pressure 30.29 in
Visibility 10.0 miles
Clouds Scattered Clouds 6500 ft
Mostly Cloudy 8000 ft
Dew Point 61 °F
Humidity 96%
Rainfall 0.00 in
Snow Depth Not available.
UV 0 out of 12
Pollen 4.50 out of 12
Air Quality Not available.
Flu Activity Not available.
METAR KDCA 200552Z 00000KT 10SM SCT065 BKN080 19/15 A3029 RMK AO2 SLP256 T01940150 10222 20194 56007

More Conditions Fewer Conditions

10-Day Weather Forecast

Almanac

Astronomy

Sep. 20, 2014 Rise Set
Actual Time 6:54 AM EDT 7:08 PM EDT
Civil Twilight 6:27 AM EDT 7:35 PM EDT
Nautical Twilight 5:56 AM EDT 8:06 PM EDT
Astronomical Twilight 5:24 AM EDT 8:38 PM EDT
Moon 3:32 AM EDT 5:09 PM EDT
Length of Visible Light 13h 07m
Length of Day
12h 14m
Tomorrow will be 2m 31s shorter.
Waning Crescent, 14% of the Moon is Illuminated
Today
Waning Crescent
Sep 24
New
Oct 1
First Quarter
Oct 8
Full
Oct 15
Last Quarter

Today's Extremes

State Highs State Lows

Community

WunderPhotos

Upload Photos

1,754,779 photos uploaded!

WunderBlogs® & News

Nearby

Snow Depth

Station Depth Elevation
No new snow has been reported.

Earthquake Activity

City Distance Mag. Time & Date
No recent earthquake activity has been reported nearby.
Minimum magnitude displayed is 2.5.

Coastal Water Temperatures

Place Temperature
Washington, DC 73.9 °F
Baltimore, MD 75.9 °F
Solomons Island, MD 75.0 °F

Nearby Weather Stations